createdAt,value
2022-08-26T00:00:11.367Z,4.70
2022-08-26T00:03:01.591Z,4.53
2022-08-26T00:05:51.800Z,4.97
2022-08-26T00:08:41.617Z,4.50
2022-08-26T00:11:30.022Z,5.03
2022-08-26T00:14:18.488Z,4.97
2022-08-26T00:17:08.640Z,5.00
2022-08-26T00:19:57.474Z,5.07
2022-08-26T00:22:45.952Z,4.50
2022-08-26T00:25:35.804Z,5.07
2022-08-26T00:28:31.010Z,5.13
2022-08-26T00:31:19.580Z,4.90
2022-08-26T00:34:09.935Z,4.70
2022-08-26T00:36:59.805Z,5.23
2022-08-26T00:39:48.600Z,5.10
2022-08-26T00:42:38.765Z,4.90
2022-08-26T00:45:46.813Z,5.10
2022-08-26T00:48:35.635Z,5.10
2022-08-26T00:51:29.960Z,5.03
2022-08-26T00:54:18.597Z,5.17
2022-08-26T00:57:16.449Z,5.03
2022-08-26T01:00:10.563Z,5.47
2022-08-26T01:03:00.756Z,4.60
2022-08-26T01:05:49.291Z,4.83
2022-08-26T01:08:39.503Z,5.43
2022-08-26T01:11:27.908Z,5.37
2022-08-26T01:14:16.622Z,5.53
2022-08-26T01:17:09.146Z,5.17
2022-08-26T01:20:01.280Z,5.40
2022-08-26T01:22:56.055Z,5.43
2022-08-26T01:25:46.694Z,5.20
2022-08-26T01:28:35.778Z,5.30
2022-08-26T01:31:26.719Z,5.20
2022-08-26T01:34:18.702Z,5.20
2022-08-26T01:37:11.737Z,5.30
2022-08-26T01:40:07.420Z,5.10
2022-08-26T01:42:56.180Z,5.67
2022-08-26T01:45:44.897Z,5.17
2022-08-26T01:48:33.995Z,5.50
2022-08-26T01:51:24.327Z,5.30
2022-08-26T01:54:13.855Z,4.77
2022-08-26T01:57:04.074Z,5.20
2022-08-26T01:59:52.555Z,5.30
2022-08-26T02:02:41.649Z,4.97
2022-08-26T02:05:32.036Z,5.30
2022-08-26T02:08:24.576Z,5.33
2022-08-26T02:11:13.505Z,5.40
2022-08-26T02:14:06.491Z,5.37
2022-08-26T02:16:55.320Z,5.53
2022-08-26T02:19:50.167Z,5.20
2022-08-26T02:22:40.383Z,4.63
2022-08-26T02:25:32.084Z,5.40
2022-08-26T02:28:20.627Z,5.17
2022-08-26T02:31:10.645Z,5.23
2022-08-26T02:34:10.791Z,5.60
2022-08-26T02:36:59.517Z,5.27
2022-08-26T02:39:48.040Z,5.20
2022-08-26T02:42:37.480Z,5.90
2022-08-26T02:45:27.460Z,5.53
2022-08-26T02:48:19.604Z,5.27
2022-08-26T02:51:08.093Z,5.73
2022-08-26T02:53:56.890Z,5.50
2022-08-26T02:56:45.742Z,5.13
2022-08-26T02:59:35.942Z,5.53
2022-08-26T03:02:24.617Z,5.13
2022-08-26T03:05:15.419Z,5.27
2022-08-26T03:08:05.108Z,5.43
2022-08-26T03:10:53.590Z,5.33
2022-08-26T03:13:42.228Z,5.40
2022-08-26T03:16:33.673Z,5.80
2022-08-26T03:19:22.889Z,5.27
2022-08-26T03:22:14.501Z,5.57
2022-08-26T03:25:03.592Z,5.50
2022-08-26T03:27:52.330Z,5.53
2022-08-26T03:30:39.875Z,5.70
2022-08-26T03:33:34.008Z,6.20
2022-08-26T03:36:22.628Z,6.23
2022-08-26T03:39:14.476Z,5.77
2022-08-26T03:42:03.025Z,5.80
2022-08-26T03:44:52.042Z,5.80
2022-08-26T03:47:40.598Z,6.43
2022-08-26T03:50:29.356Z,6.30
2022-08-26T03:53:23.772Z,6.40
2022-08-26T03:56:14.484Z,6.67
2022-08-26T03:59:02.927Z,6.30
2022-08-26T04:01:51.486Z,6.33
2022-08-26T04:04:40.221Z,7.17
2022-08-26T04:07:28.767Z,6.97
2022-08-26T04:10:28.582Z,6.80
2022-08-26T04:13:19.217Z,6.07
2022-08-26T04:16:08.019Z,6.33
2022-08-26T04:18:59.056Z,6.83
2022-08-26T04:21:48.278Z,6.37
2022-08-26T04:24:39.510Z,6.27
2022-08-26T04:27:28.037Z,6.73
2022-08-26T04:30:18.186Z,6.43
2022-08-26T04:33:13.025Z,7.07
2022-08-26T04:36:02.595Z,6.70
2022-08-26T04:38:51.515Z,7.53
2022-08-26T04:41:41.938Z,8.10
2022-08-26T04:44:31.107Z,7.60
2022-08-26T04:47:21.013Z,7.93
2022-08-26T04:50:10.956Z,8.33
2022-08-26T04:52:59.860Z,8.37
2022-08-26T04:55:48.459Z,9.13
2022-08-26T04:58:37.331Z,10.10
2022-08-26T05:01:25.910Z,10.47
2022-08-26T05:04:16.305Z,9.93
2022-08-26T05:07:08.011Z,9.90
2022-08-26T05:09:58.189Z,10.37
2022-08-26T05:12:46.670Z,8.93
2022-08-26T05:15:35.723Z,8.60
2022-08-26T05:18:25.828Z,8.30
2022-08-26T05:21:20.177Z,8.97
2022-08-26T05:24:10.158Z,9.97
2022-08-26T05:26:58.961Z,9.80
2022-08-26T05:29:54.632Z,9.87
2022-08-26T05:32:43.763Z,8.67
2022-08-26T05:35:34.141Z,9.80
2022-08-26T05:38:24.045Z,11.13
2022-08-26T05:41:18.929Z,11.23
2022-08-26T05:44:10.397Z,12.27
2022-08-26T05:46:58.858Z,10.53
2022-08-26T05:49:51.541Z,10.67
2022-08-26T05:52:40.328Z,10.30
2022-08-26T05:55:30.270Z,10.57
2022-08-26T05:58:20.143Z,10.20
2022-08-26T06:01:10.627Z,9.57
2022-08-26T06:04:02.019Z,8.10
2022-08-26T06:06:50.588Z,8.57
2022-08-26T06:09:39.118Z,8.67
2022-08-26T06:12:28.905Z,8.80
2022-08-26T06:15:17.644Z,10.30
2022-08-26T06:18:06.792Z,9.53
2022-08-26T06:20:57.663Z,9.33
2022-08-26T06:24:05.145Z,8.37
2022-08-26T06:26:54.977Z,10.67
2022-08-26T06:29:44.973Z,10.77
2022-08-26T06:32:33.436Z,9.53
2022-08-26T06:35:21.947Z,9.47
2022-08-26T06:38:10.960Z,9.10
2022-08-26T06:40:59.883Z,9.07
2022-08-26T06:43:48.514Z,8.63
2022-08-26T06:46:38.328Z,8.17
2022-08-26T06:49:27.780Z,9.90
2022-08-26T06:52:21.179Z,8.47
2022-08-26T06:55:12.952Z,8.03
2022-08-26T06:58:01.452Z,8.63
2022-08-26T07:00:52.997Z,9.27
2022-08-26T07:03:42.806Z,9.07
2022-08-26T07:06:38.050Z,9.27
2022-08-26T07:09:30.305Z,8.90
2022-08-26T07:12:19.084Z,9.93
2022-08-26T07:15:08.602Z,9.97
2022-08-26T07:17:57.146Z,10.17
2022-08-26T07:20:47.097Z,10.73
2022-08-26T07:23:36.248Z,10.57
2022-08-26T07:26:26.409Z,9.60
2022-08-26T07:29:17.289Z,9.63
2022-08-26T07:32:06.480Z,9.30
2022-08-26T07:34:54.965Z,9.60
2022-08-26T07:37:44.787Z,9.30
2022-08-26T07:40:34.025Z,9.00
2022-08-26T07:43:22.589Z,9.27
2022-08-26T07:46:16.466Z,9.57
2022-08-26T07:49:05.718Z,9.53
2022-08-26T07:51:55.639Z,8.70
2022-08-26T07:54:45.453Z,8.40
2022-08-26T07:57:34.540Z,8.87
2022-08-26T08:00:23.566Z,8.87
2022-08-26T08:03:12.588Z,8.50
2022-08-26T08:06:02.596Z,9.37
2022-08-26T08:08:51.652Z,8.07
2022-08-26T08:11:41.628Z,9.80
2022-08-26T08:14:32.000Z,9.30
2022-08-26T08:17:20.495Z,9.27
2022-08-26T08:20:11.069Z,9.47
2022-08-26T08:22:59.826Z,8.47
2022-08-26T08:25:49.076Z,9.40
2022-08-26T08:28:39.096Z,8.63
2022-08-26T08:31:56.176Z,9.17
2022-08-26T08:34:38.358Z,9.17
2022-08-26T08:37:26.872Z,9.03
2022-08-26T08:40:18.088Z,8.43
2022-08-26T08:43:08.128Z,8.33
2022-08-26T08:46:00.238Z,8.40
2022-08-26T08:48:52.198Z,7.50
2022-08-26T08:51:46.795Z,9.30
2022-08-26T08:54:35.312Z,7.63
2022-08-26T08:57:29.068Z,7.87
2022-08-26T09:00:19.330Z,8.70
2022-08-26T09:03:13.284Z,7.83
2022-08-26T09:06:01.779Z,8.40
2022-08-26T09:08:51.441Z,7.60
2022-08-26T09:11:39.900Z,7.93
2022-08-26T09:14:29.173Z,8.27
2022-08-26T09:17:28.004Z,7.97
2022-08-26T09:20:26.392Z,7.80
2022-08-26T09:23:15.098Z,7.13
2022-08-26T09:26:15.593Z,7.27
2022-08-26T09:29:08.687Z,6.23
2022-08-26T09:32:19.339Z,7.20
2022-08-26T09:35:12.099Z,5.90
2022-08-26T09:38:02.003Z,6.00
2022-08-26T09:40:58.965Z,6.47
2022-08-26T09:44:07.821Z,6.80
2022-08-26T09:47:05.064Z,6.43
2022-08-26T09:50:00.073Z,6.30
2022-08-26T09:52:48.805Z,6.50
2022-08-26T09:55:41.853Z,7.23
2022-08-26T09:58:34.737Z,6.83
2022-08-26T10:01:31.341Z,6.83
2022-08-26T10:04:22.990Z,6.23
2022-08-26T10:07:11.530Z,6.33
2022-08-26T10:10:00.030Z,7.10
2022-08-26T10:13:05.519Z,5.90
2022-08-26T10:16:01.302Z,5.93
2022-08-26T10:18:56.865Z,6.07
2022-08-26T10:21:54.063Z,6.03
2022-08-26T10:24:47.721Z,4.53
2022-08-26T10:27:50.972Z,4.80
2022-08-26T10:30:47.924Z,4.50
2022-08-26T10:33:36.406Z,4.70
2022-08-26T10:37:10.520Z,4.10
2022-08-26T10:39:56.944Z,5.30
2022-08-26T10:42:50.995Z,4.27
2022-08-26T10:45:48.832Z,4.33
2022-08-26T10:48:43.643Z,4.73
2022-08-26T10:51:36.477Z,3.97
2022-08-26T10:54:28.649Z,4.93
2022-08-26T10:57:20.337Z,4.73
2022-08-26T11:00:27.596Z,4.87
2022-08-26T11:03:36.406Z,4.83
2022-08-26T11:06:28.183Z,4.73
2022-08-26T11:09:44.751Z,4.20
2022-08-26T11:12:57.244Z,4.70
2022-08-26T11:16:01.267Z,5.23
2022-08-26T11:18:54.649Z,4.90
2022-08-26T11:21:49.505Z,4.40
2022-08-26T11:25:02.499Z,4.30
2022-08-26T11:27:57.636Z,4.57
2022-08-26T11:30:56.968Z,5.40
2022-08-26T11:33:50.989Z,5.20
2022-08-26T11:36:59.686Z,4.43
2022-08-26T11:39:54.475Z,5.13
2022-08-26T11:42:45.287Z,4.60
2022-08-26T11:45:36.105Z,5.10
2022-08-26T11:48:33.167Z,4.90
2022-08-26T11:51:25.142Z,5.30
2022-08-26T11:54:15.972Z,5.40
2022-08-26T11:57:09.407Z,5.23
2022-08-26T12:00:00.158Z,5.10
2022-08-26T12:02:49.021Z,4.90
2022-08-26T12:05:45.206Z,5.13
2022-08-26T12:08:36.650Z,5.53
2022-08-26T12:11:26.752Z,5.03
2022-08-26T12:14:19.318Z,5.67
2022-08-26T12:17:24.075Z,5.73
2022-08-26T12:20:45.684Z,5.47
2022-08-26T12:23:43.282Z,5.67
2022-08-26T12:26:33.535Z,5.53
2022-08-26T12:29:27.584Z,5.43
2022-08-26T12:32:17.707Z,5.20
2022-08-26T12:35:08.817Z,5.83
2022-08-26T12:37:57.590Z,5.00
2022-08-26T12:40:47.630Z,5.40
2022-08-26T12:43:42.407Z,5.33
2022-08-26T12:46:30.974Z,5.80
2022-08-26T12:49:20.009Z,5.70
2022-08-26T12:52:10.558Z,5.32
2022-08-26T12:55:01.076Z,5.82
2022-08-26T12:57:51.125Z,5.77
2022-08-26T13:00:41.177Z,5.30
2022-08-26T13:03:43.745Z,5.78
2022-08-26T13:06:32.532Z,4.90
2022-08-26T13:09:31.306Z,5.00
2022-08-26T13:12:30.979Z,5.28
2022-08-26T13:15:20.846Z,5.18
2022-08-26T13:18:09.290Z,4.93
2022-08-26T13:20:57.772Z,4.63
2022-08-26T13:23:47.460Z,4.88
2022-08-26T13:26:36.171Z,4.93
2022-08-26T13:29:24.656Z,5.18
2022-08-26T13:32:14.823Z,5.20
2022-08-26T13:35:05.599Z,4.97
2022-08-26T13:37:56.719Z,4.70
2022-08-26T13:40:45.262Z,4.40
2022-08-26T13:43:34.151Z,5.53
2022-08-26T13:46:22.862Z,5.28
2022-08-26T13:49:12.777Z,5.90
2022-08-26T13:52:03.592Z,5.88
2022-08-26T13:54:52.087Z,5.97
2022-08-26T13:57:42.407Z,5.85
2022-08-26T14:00:33.361Z,5.73
2022-08-26T14:03:22.780Z,5.30
2022-08-26T14:06:12.841Z,5.47
2022-08-26T14:09:01.361Z,5.67
2022-08-26T14:11:54.392Z,5.50
2022-08-26T14:14:43.489Z,5.80
2022-08-26T14:17:32.728Z,5.70
2022-08-26T14:20:24.793Z,5.53
2022-08-26T14:23:15.304Z,5.53
2022-08-26T14:26:08.014Z,5.43
2022-08-26T14:28:56.656Z,5.30
2022-08-26T14:31:45.374Z,5.67
2022-08-26T14:34:33.958Z,5.55
2022-08-26T14:37:22.790Z,6.10
2022-08-26T14:40:13.965Z,5.10
2022-08-26T14:43:02.461Z,5.20
2022-08-26T14:45:52.205Z,5.05
2022-08-26T14:48:40.757Z,5.13
2022-08-26T14:51:29.244Z,4.90
2022-08-26T14:54:20.779Z,4.93
2022-08-26T14:57:12.438Z,4.78
2022-08-26T15:00:00.943Z,5.60
2022-08-26T15:02:49.639Z,4.82
2022-08-26T15:05:39.821Z,5.05
2022-08-26T15:08:28.380Z,4.85
2022-08-26T15:11:18.304Z,5.28
2022-08-26T15:14:08.127Z,4.80
2022-08-26T15:17:07.511Z,4.60
2022-08-26T15:19:55.971Z,4.30
2022-08-26T15:22:44.472Z,4.80
2022-08-26T15:25:33.127Z,4.67
2022-08-26T15:28:21.636Z,4.43
2022-08-26T15:31:12.234Z,4.70
2022-08-26T15:34:02.574Z,4.80
2022-08-26T15:36:51.093Z,7.23
2022-08-26T15:39:40.810Z,9.10
2022-08-26T15:42:29.279Z,11.20
2022-08-26T15:45:24.797Z,12.13
2022-08-26T15:48:16.230Z,13.10
2022-08-26T15:51:05.288Z,12.33
2022-08-26T15:53:56.099Z,12.70
2022-08-26T15:56:44.748Z,13.10
2022-08-26T15:59:33.293Z,12.60
2022-08-26T16:02:22.022Z,11.80
2022-08-26T16:05:12.487Z,12.00
2022-08-26T16:08:01.872Z,10.67
2022-08-26T16:10:51.256Z,10.10
2022-08-26T16:13:40.289Z,9.30
2022-08-26T16:16:28.821Z,9.47
2022-08-26T16:19:17.423Z,8.40
2022-08-26T16:22:09.321Z,9.17
2022-08-26T16:24:58.460Z,9.10
2022-08-26T16:27:46.951Z,9.77
2022-08-26T16:30:35.872Z,8.43
2022-08-26T16:33:29.217Z,10.30
2022-08-26T16:36:18.452Z,11.37
2022-08-26T16:39:08.942Z,11.10
2022-08-26T16:41:57.651Z,11.63
2022-08-26T16:44:46.435Z,13.10
2022-08-26T16:47:34.986Z,12.97
2022-08-26T16:50:24.092Z,13.00
2022-08-26T16:56:08.070Z,13.23
2022-08-26T16:58:56.556Z,13.97
2022-08-26T17:01:45.167Z,14.13
2022-08-26T17:04:33.806Z,13.50
2022-08-26T17:07:22.278Z,12.07
2022-08-26T17:10:12.886Z,11.53
2022-08-26T17:13:02.810Z,12.10
2022-08-26T17:15:55.064Z,11.53
2022-08-26T17:18:48.398Z,10.70
2022-08-26T17:21:37.214Z,10.63
2022-08-26T17:24:25.655Z,10.50
2022-08-26T17:27:14.647Z,10.63
2022-08-26T17:30:05.887Z,10.20
2022-08-26T17:32:54.386Z,9.13
2022-08-26T17:35:42.919Z,9.93
2022-08-26T17:38:31.437Z,9.53
2022-08-26T17:41:19.941Z,9.27
2022-08-26T17:44:09.512Z,8.40
2022-08-26T17:46:59.265Z,8.53
2022-08-26T17:49:47.769Z,8.00
2022-08-26T17:52:36.467Z,7.87
2022-08-26T17:55:24.957Z,7.97
2022-08-26T17:58:14.584Z,7.13
2022-08-26T18:01:04.301Z,6.83
2022-08-26T18:04:00.102Z,6.80
2022-08-26T18:06:49.555Z,6.87
2022-08-26T18:09:38.057Z,8.00
2022-08-26T18:12:26.544Z,7.33
2022-08-26T18:15:18.452Z,6.90
2022-08-26T18:18:07.180Z,7.60
2022-08-26T18:21:01.890Z,7.70
2022-08-26T18:23:50.893Z,8.37
2022-08-26T18:26:41.165Z,8.63
2022-08-26T18:29:29.737Z,7.93
2022-08-26T18:32:18.304Z,8.70
2022-08-26T18:35:08.219Z,8.30
2022-08-26T18:37:58.487Z,8.57
2022-08-26T18:40:59.496Z,9.80
2022-08-26T18:43:48.064Z,9.30
2022-08-26T18:46:36.877Z,11.00
2022-08-26T18:49:25.429Z,12.40
2022-08-26T18:52:13.925Z,12.90
2022-08-26T18:55:04.619Z,14.43
2022-08-26T18:57:53.129Z,13.37
2022-08-26T19:00:41.616Z,14.13
2022-08-26T19:03:30.139Z,12.13
2022-08-26T19:06:20.675Z,13.10
2022-08-26T19:09:11.917Z,12.47
2022-08-26T19:12:05.324Z,11.80
2022-08-26T19:14:54.455Z,11.63
2022-08-26T19:17:42.946Z,12.07
2022-08-26T19:20:31.501Z,11.87
2022-08-26T19:23:31.320Z,12.10
2022-08-26T19:26:20.702Z,11.17
2022-08-26T19:29:10.613Z,11.27
2022-08-26T19:31:58.955Z,10.97
2022-08-26T19:34:47.452Z,11.53
2022-08-26T19:37:35.984Z,11.37
2022-08-26T19:40:25.361Z,10.63
2022-08-26T19:43:13.888Z,12.00
2022-08-26T19:46:09.369Z,12.93
2022-08-26T19:48:58.544Z,14.33
2022-08-26T19:51:47.003Z,13.17
2022-08-26T19:54:36.222Z,13.70
2022-08-26T19:57:24.663Z,15.03
2022-08-26T20:00:15.721Z,15.93
2022-08-26T20:03:05.708Z,14.73
2022-08-26T20:05:54.363Z,14.47
2022-08-26T20:08:43.446Z,15.60
2022-08-26T20:11:32.686Z,16.30
2022-08-26T20:14:23.131Z,16.90
2022-08-26T20:17:11.760Z,16.23
2022-08-26T20:20:33.401Z,16.93
2022-08-26T20:23:22.270Z,17.73
2022-08-26T20:26:10.762Z,17.70
2022-08-26T20:28:59.331Z,18.00
2022-08-26T20:31:47.986Z,18.10
2022-08-26T20:34:36.950Z,17.83
2022-08-26T20:37:26.839Z,17.57
2022-08-26T20:40:15.456Z,19.00
2022-08-26T20:43:05.957Z,19.13
2022-08-26T20:45:54.584Z,18.77
2022-08-26T20:48:43.210Z,19.17
2022-08-26T20:51:32.206Z,20.50
2022-08-26T20:54:27.530Z,19.77
2022-08-26T20:57:16.766Z,21.10
2022-08-26T21:00:07.152Z,20.07
2022-08-26T21:02:56.553Z,20.43
2022-08-26T21:05:45.209Z,19.63
2022-08-26T21:08:33.651Z,20.93
2022-08-26T21:11:23.647Z,21.37
2022-08-26T21:14:15.956Z,20.10
2022-08-26T21:17:05.503Z,18.93
2022-08-26T21:19:54.137Z,19.17
2022-08-26T21:22:42.797Z,19.30
2022-08-26T21:25:31.320Z,20.07
2022-08-26T21:28:21.215Z,19.73
2022-08-26T21:31:11.994Z,19.50
2022-08-26T21:34:00.608Z,18.70
2022-08-26T21:36:49.613Z,19.50
2022-08-26T21:39:38.165Z,20.70
2022-08-26T21:42:28.584Z,20.20
2022-08-26T21:45:18.657Z,19.87
2022-08-26T21:48:07.866Z,19.23
2022-08-26T21:50:57.219Z,19.77
2022-08-26T21:53:45.752Z,19.50
2022-08-26T21:56:36.537Z,19.80
2022-08-26T21:59:25.219Z,18.67
2022-08-26T22:02:15.599Z,18.53
2022-08-26T22:05:04.315Z,19.00
2022-08-26T22:07:52.967Z,20.27
2022-08-26T22:10:41.578Z,19.83
2022-08-26T22:13:31.747Z,19.03
2022-08-26T22:16:20.342Z,19.97
2022-08-26T22:19:17.224Z,20.50
2022-08-26T22:22:06.122Z,18.47
2022-08-26T22:24:54.663Z,18.20
2022-08-26T22:27:43.084Z,18.43
2022-08-26T22:30:31.619Z,17.97
2022-08-26T22:33:20.145Z,17.97
2022-08-26T22:36:16.451Z,19.90
2022-08-26T22:39:05.180Z,19.13
2022-08-26T22:41:55.153Z,19.07
2022-08-26T22:44:44.063Z,17.20
2022-08-26T22:47:32.624Z,17.90
2022-08-26T22:50:24.403Z,18.83
2022-08-26T22:53:14.372Z,17.97
2022-08-26T22:56:03.020Z,19.63
2022-08-26T22:58:51.688Z,18.37
2022-08-26T23:01:42.039Z,18.57
2022-08-26T23:04:30.638Z,18.60
2022-08-26T23:07:19.556Z,18.87
2022-08-26T23:10:10.866Z,19.40
2022-08-26T23:12:59.585Z,17.57
2022-08-26T23:15:48.067Z,17.87
2022-08-26T23:18:36.772Z,17.67
2022-08-26T23:21:25.224Z,18.93
2022-08-26T23:24:13.771Z,18.83
2022-08-26T23:27:03.729Z,18.13
2022-08-26T23:29:52.450Z,17.93
2022-08-26T23:32:40.985Z,17.23
2022-08-26T23:35:28.634Z,18.23
2022-08-26T23:38:17.246Z,16.27
2022-08-26T23:41:05.931Z,15.97
2022-08-26T23:43:55.850Z,16.10
2022-08-26T23:46:44.321Z,17.20
2022-08-26T23:49:33.012Z,16.03
2022-08-26T23:52:39.343Z,16.13
2022-08-26T23:55:27.929Z,16.27
2022-08-26T23:58:16.628Z,16.27
